Time;durP1;ratioP1;P1;durP2;ratioP2;P2;SDS_P1;SDS_P2;PMS_P1;PMS_P2;Temp;Humidity;BMP_temperature;BMP_pressure;BME280_temperature;BME280_humidity;BME280_pressure;Samples;Min_cycle;Max_cycle;Signal;HPM_P1;HPM_P2
2020/12/06 00:02:14;;;;;;;13.90;8.10;;;1.20;99.90;;;;;;5118943;27;20553;-75
2020/12/06 00:04:41;;;;;;;13.03;7.70;;;1.30;99.90;;;;;;5111431;27;20198;-78
2020/12/06 00:07:07;;;;;;;14.90;7.97;;;1.40;99.90;;;;;;5114434;27;20275;-75
2020/12/06 00:09:34;;;;;;;12.87;8.10;;;1.30;99.90;;;;;;5117414;27;20596;-76
2020/12/06 00:12:00;;;;;;;15.37;8.00;;;1.20;99.90;;;;;;5113224;27;20225;-78
2020/12/06 00:14:27;;;;;;;16.43;8.70;;;1.30;99.90;;;;;;5113065;27;20211;-75
2020/12/06 00:16:53;;;;;;;16.90;7.90;;;1.30;99.90;;;;;;5116767;27;20681;-75
2020/12/06 00:19:22;;;;;;;14.17;8.07;;;1.20;99.90;;;;;;5117156;27;20214;-75
2020/12/06 00:21:49;;;;;;;10.60;7.77;;;1.30;99.90;;;;;;5120927;27;20546;-76
2020/12/06 00:24:16;;;;;;;12.67;8.07;;;1.30;99.90;;;;;;5115696;27;20239;-78
2020/12/06 00:26:43;;;;;;;10.73;7.43;;;1.30;99.90;;;;;;5113961;27;20198;-76
2020/12/06 00:29:09;;;;;;;13.33;7.80;;;1.30;99.90;;;;;;5112727;27;20578;-77
2020/12/06 00:31:36;;;;;;;12.43;8.07;;;1.30;99.90;;;;;;5115001;27;20198;-77
2020/12/06 00:34:02;;;;;;;12.37;8.23;;;1.20;99.90;;;;;;5112194;27;20305;-76
2020/12/06 00:36:28;;;;;;;12.80;7.97;;;1.30;99.90;;;;;;5116864;27;20191;-76
2020/12/06 00:38:55;;;;;;;14.23;8.80;;;1.20;99.90;;;;;;5114547;27;20207;-75
2020/12/06 00:41:23;;;;;;;15.27;8.97;;;1.30;99.90;;;;;;5111338;27;20293;-75
2020/12/06 00:43:50;;;;;;;11.83;8.40;;;1.20;99.90;;;;;;5118119;27;20230;-76
2020/12/06 00:46:20;;;;;;;11.70;7.67;;;1.10;99.90;;;;;;5114988;27;20608;-77
2020/12/06 00:48:46;;;;;;;14.37;8.37;;;1.10;99.90;;;;;;5115938;27;20679;-75
2020/12/06 00:51:13;;;;;;;13.33;8.87;;;1.00;99.90;;;;;;5126306;27;20207;-75
2020/12/06 00:53:41;;;;;;;12.50;7.80;;;0.90;99.90;;;;;;5130593;27;20190;-79
2020/12/06 00:56:07;;;;;;;13.20;7.97;;;1.00;99.90;;;;;;5131405;27;20198;-75
2020/12/06 00:58:33;;;;;;;15.03;8.53;;;1.10;99.90;;;;;;5131440;27;20664;-76
2020/12/06 01:01:00;;;;;;;11.93;7.90;;;1.00;99.90;;;;;;5131669;27;20205;-77
2020/12/06 01:03:27;;;;;;;11.37;7.70;;;1.00;99.90;;;;;;5122912;27;20865;-77
2020/12/06 01:05:53;;;;;;;12.67;7.97;;;1.10;99.90;;;;;;5131125;27;20230;-75
2020/12/06 01:08:19;;;;;;;12.57;8.20;;;1.10;99.90;;;;;;5131164;27;20221;-75
2020/12/06 01:10:45;;;;;;;14.40;8.10;;;1.10;99.90;;;;;;5131718;27;20244;-76
2020/12/06 01:13:12;;;;;;;18.13;8.50;;;1.20;99.90;;;;;;5131292;27;20682;-77
2020/12/06 01:15:38;;;;;;;14.53;8.60;;;1.20;99.90;;;;;;5126237;27;20289;-77
2020/12/06 01:18:05;;;;;;;11.33;8.33;;;1.20;99.90;;;;;;5135331;27;20214;-74
2020/12/06 01:20:32;;;;;;;14.70;7.97;;;1.10;99.90;;;;;;5134736;27;20208;-76
2020/12/06 01:22:58;;;;;;;15.63;8.27;;;1.10;99.90;;;;;;5135399;27;20300;-75
2020/12/06 01:25:24;;;;;;;14.07;8.50;;;1.10;99.90;;;;;;5134757;27;20207;-76
2020/12/06 01:27:51;;;;;;;12.43;8.13;;;1.00;99.90;;;;;;5135478;27;20200;-75
2020/12/06 01:30:17;;;;;;;12.37;8.30;;;0.90;99.90;;;;;;5149089;27;20658;-78
2020/12/06 01:32:43;;;;;;;12.10;8.07;;;0.80;99.90;;;;;;5140725;27;20200;-76
2020/12/06 01:35:10;;;;;;;12.90;8.47;;;0.90;99.90;;;;;;5141858;27;20219;-75
2020/12/06 01:37:37;;;;;;;11.90;7.87;;;1.00;99.90;;;;;;5141549;27;20224;-75
2020/12/06 01:40:03;;;;;;;11.93;8.50;;;1.00;99.90;;;;;;5139872;27;20206;-75
2020/12/06 01:42:30;;;;;;;15.57;8.80;;;1.00;99.90;;;;;;5146544;27;20229;-76
2020/12/06 01:44:57;;;;;;;12.73;8.97;;;1.00;99.90;;;;;;5149030;27;20258;-76
2020/12/06 01:47:23;;;;;;;12.90;8.50;;;1.00;99.90;;;;;;5149032;27;20203;-76
2020/12/06 01:49:50;;;;;;;13.43;9.00;;;0.90;99.90;;;;;;5123434;27;20226;-75
2020/12/06 01:52:17;;;;;;;15.40;9.10;;;0.90;99.90;;;;;;5134606;27;20200;-77
2020/12/06 01:54:44;;;;;;;14.60;9.43;;;0.90;99.90;;;;;;5134386;27;20404;-74
2020/12/06 01:57:10;;;;;;;13.87;8.73;;;0.90;99.90;;;;;;5134949;27;20206;-75
2020/12/06 01:59:36;;;;;;;14.03;8.77;;;0.90;99.90;;;;;;5134069;27;20197;-77
2020/12/06 02:02:04;;;;;;;13.00;8.03;;;0.90;99.90;;;;;;5134650;27;20543;-77
2020/12/06 02:04:31;;;;;;;13.40;8.30;;;0.90;99.90;;;;;;5133329;27;20591;-75
2020/12/06 02:06:59;;;;;;;14.37;8.17;;;1.00;99.90;;;;;;5134314;27;20287;-76
2020/12/06 02:09:28;;;;;;;14.00;8.27;;;1.10;99.90;;;;;;5134063;27;20313;-79
2020/12/06 02:11:55;;;;;;;15.87;8.60;;;1.00;99.90;;;;;;5133774;27;20199;-78
2020/12/06 02:14:22;;;;;;;12.60;8.73;;;1.00;99.90;;;;;;5133706;27;20201;-76
2020/12/06 02:16:52;;;;;;;12.37;8.40;;;1.00;99.90;;;;;;5134235;27;20568;-78
2020/12/06 02:19:19;;;;;;;12.57;8.30;;;1.00;99.90;;;;;;5133858;27;20198;-78
2020/12/06 02:21:46;;;;;;;13.87;8.50;;;0.80;99.90;;;;;;5133653;27;20285;-77
2020/12/06 02:24:14;;;;;;;12.47;8.50;;;0.70;99.90;;;;;;5133079;27;20209;-77
2020/12/06 02:26:42;;;;;;;15.03;8.77;;;0.60;99.90;;;;;;5133372;27;20745;-77
2020/12/06 02:29:08;;;;;;;15.30;8.63;;;0.60;99.90;;;;;;5133355;27;20328;-78
2020/12/06 02:31:35;;;;;;;14.70;8.87;;;0.80;99.90;;;;;;5127612;27;20198;-76
2020/12/06 02:34:02;;;;;;;11.80;8.03;;;0.80;99.90;;;;;;5133650;27;20200;-79
2020/12/06 02:36:28;;;;;;;12.70;8.50;;;0.80;99.90;;;;;;5133956;27;20659;-77
2020/12/06 02:38:56;;;;;;;13.07;8.97;;;0.90;99.90;;;;;;5133225;27;20670;-77
2020/12/06 02:41:22;;;;;;;16.50;8.27;;;0.90;99.90;;;;;;5133499;27;20229;-76
2020/12/06 02:43:48;;;;;;;15.97;8.70;;;0.80;99.90;;;;;;5133042;27;20202;-77
2020/12/06 02:46:15;;;;;;;13.53;7.87;;;0.70;99.90;;;;;;5133662;27;20289;-79
2020/12/06 02:48:41;;;;;;;11.27;7.90;;;0.60;99.90;;;;;;5133293;27;20199;-78
2020/12/06 02:51:07;;;;;;;11.60;8.20;;;0.70;99.90;;;;;;5133356;27;20212;-77
2020/12/06 02:53:34;;;;;;;11.53;7.50;;;0.80;99.90;;;;;;5132923;27;20663;-77
2020/12/06 02:56:01;;;;;;;12.53;8.43;;;0.70;99.90;;;;;;5131270;27;20198;-78
2020/12/06 02:58:27;;;;;;;11.80;7.97;;;0.80;99.90;;;;;;5133292;27;20209;-75
2020/12/06 03:00:54;;;;;;;12.93;8.30;;;0.80;99.90;;;;;;5133343;27;20206;-75
2020/12/06 03:03:20;;;;;;;12.93;8.33;;;0.80;99.90;;;;;;5132824;27;20286;-75
2020/12/06 03:05:47;;;;;;;13.13;8.03;;;0.80;99.90;;;;;;5133387;27;20226;-77
2020/12/06 03:08:13;;;;;;;14.60;8.70;;;0.80;99.90;;;;;;5132848;27;20308;-76
2020/12/06 03:10:39;;;;;;;13.40;8.40;;;0.90;99.90;;;;;;5132778;27;20243;-76
2020/12/06 03:13:07;;;;;;;13.10;8.30;;;0.80;99.90;;;;;;5133558;27;20663;-75
2020/12/06 03:15:33;;;;;;;14.03;7.77;;;0.80;99.90;;;;;;5133660;27;20577;-76
2020/12/06 03:17:59;;;;;;;14.43;8.97;;;0.70;99.90;;;;;;5133727;27;20564;-78
2020/12/06 03:20:25;;;;;;;15.07;8.77;;;0.70;99.90;;;;;;5132573;27;20779;-75
2020/12/06 03:22:52;;;;;;;18.30;9.00;;;0.80;99.90;;;;;;5133349;27;20289;-79
2020/12/06 03:25:18;;;;;;;14.93;9.00;;;0.70;99.90;;;;;;5132880;27;20204;-78
2020/12/06 03:27:44;;;;;;;15.03;8.83;;;0.70;99.90;;;;;;5132231;27;20239;-77
2020/12/06 03:30:12;;;;;;;15.87;8.33;;;0.90;99.90;;;;;;5132003;27;20240;-76
2020/12/06 03:32:38;;;;;;;13.60;7.80;;;0.80;99.90;;;;;;5133530;27;20201;-76
2020/12/06 03:35:04;;;;;;;13.47;8.93;;;0.80;99.90;;;;;;5132186;27;20280;-78
2020/12/06 03:37:31;;;;;;;14.30;8.83;;;0.80;99.90;;;;;;5131119;27;20211;-77
2020/12/06 03:39:57;;;;;;;12.47;8.33;;;0.70;99.90;;;;;;5132270;27;20201;-78
2020/12/06 03:42:23;;;;;;;17.30;8.93;;;0.60;99.90;;;;;;5132966;27;20215;-79
2020/12/06 03:44:50;;;;;;;12.07;8.17;;;0.60;99.90;;;;;;5122795;27;20232;-77
2020/12/06 03:47:17;;;;;;;12.27;7.97;;;0.60;99.90;;;;;;5133091;27;20224;-77
2020/12/06 03:49:44;;;;;;;12.67;8.20;;;0.60;99.90;;;;;;5132154;27;20221;-79
2020/12/06 03:52:10;;;;;;;13.63;8.17;;;0.60;99.90;;;;;;5131628;27;20641;-77
2020/12/06 03:54:36;;;;;;;14.67;8.87;;;0.50;99.90;;;;;;5131743;27;20736;-77
2020/12/06 03:57:03;;;;;;;12.87;8.40;;;0.60;99.90;;;;;;5132361;27;20669;-78
2020/12/06 03:59:29;;;;;;;12.30;8.37;;;0.60;99.90;;;;;;5132035;27;20485;-78
2020/12/06 04:01:55;;;;;;;14.37;8.20;;;0.70;99.90;;;;;;5132536;27;20201;-77
2020/12/06 04:04:23;;;;;;;11.77;7.87;;;0.70;99.90;;;;;;5131570;27;20600;-77
2020/12/06 04:06:49;;;;;;;12.17;7.60;;;0.70;99.90;;;;;;5132572;27;20534;-79
2020/12/06 04:09:15;;;;;;;11.30;7.93;;;0.70;99.90;;;;;;5131571;27;20237;-78
2020/12/06 04:11:41;;;;;;;11.73;7.83;;;0.70;99.90;;;;;;5132469;27;20190;-78
2020/12/06 04:14:08;;;;;;;12.80;7.93;;;0.70;99.90;;;;;;5132160;27;20198;-77
2020/12/06 04:16:34;;;;;;;13.60;8.40;;;0.70;99.90;;;;;;5132010;27;20198;-77
2020/12/06 04:19:00;;;;;;;12.13;8.07;;;0.80;99.90;;;;;;5131921;27;20205;-77
2020/12/06 04:21:27;;;;;;;15.37;9.10;;;0.90;99.90;;;;;;5131743;27;20198;-77
2020/12/06 04:23:54;;;;;;;13.90;8.47;;;0.80;99.90;;;;;;5127008;27;20556;-77
2020/12/06 04:26:20;;;;;;;11.07;8.00;;;0.60;99.90;;;;;;5132418;27;20204;-78
2020/12/06 04:28:46;;;;;;;14.57;9.17;;;0.60;99.90;;;;;;5131943;27;20197;-77
2020/12/06 04:31:13;;;;;;;13.40;8.97;;;0.50;99.90;;;;;;5131716;27;20317;-78
2020/12/06 04:33:39;;;;;;;20.20;9.90;;;0.50;99.90;;;;;;5136022;27;20316;-78
2020/12/06 04:36:05;;;;;;;15.67;10.03;;;0.40;99.90;;;;;;5144359;27;20288;-77
2020/12/06 04:38:33;;;;;;;16.10;10.00;;;0.40;99.90;;;;;;5146484;27;20266;-77
2020/12/06 04:40:59;;;;;;;15.70;8.93;;;0.40;99.90;;;;;;5146635;27;20292;-78
2020/12/06 04:43:27;;;;;;;15.67;9.97;;;0.50;99.90;;;;;;5143586;27;20273;-77
2020/12/06 04:45:53;;;;;;;15.13;8.83;;;0.50;99.90;;;;;;5146169;27;20615;-77
2020/12/06 04:48:26;;;;;;;17.17;9.37;;;0.50;99.90;;;;;;5145491;27;20279;-77
2020/12/06 04:50:55;;;;;;;14.37;9.07;;;0.50;99.90;;;;;;5145889;27;20248;-77
2020/12/06 04:53:27;;;;;;;14.43;9.03;;;0.50;99.90;;;;;;5137479;27;20202;-79
2020/12/06 04:55:57;;;;;;;14.80;8.73;;;0.70;99.90;;;;;;5133236;27;20221;-78
2020/12/06 04:58:28;;;;;;;14.23;9.07;;;0.70;99.90;;;;;;5135685;27;20586;-76
2020/12/06 05:00:54;;;;;;;13.70;9.20;;;0.70;99.90;;;;;;5135495;27;20289;-77
2020/12/06 05:03:25;;;;;;;13.17;9.03;;;0.70;99.90;;;;;;5135028;27;20289;-76
2020/12/06 05:05:53;;;;;;;14.47;9.23;;;0.60;99.90;;;;;;5135488;27;20194;-77
2020/12/06 05:08:22;;;;;;;13.13;8.27;;;0.60;99.90;;;;;;5136212;27;20203;-76
2020/12/06 05:10:48;;;;;;;13.27;8.50;;;0.60;99.90;;;;;;5135212;27;20218;-76
2020/12/06 05:13:17;;;;;;;13.30;8.40;;;0.60;99.90;;;;;;5135257;27;20263;-76
2020/12/06 05:15:44;;;;;;;13.07;8.33;;;0.60;99.90;;;;;;5135411;27;20671;-78
2020/12/06 05:18:11;;;;;;;16.90;9.03;;;0.50;99.90;;;;;;5134891;27;20303;-77
2020/12/06 05:20:37;;;;;;;13.60;9.20;;;0.40;99.90;;;;;;5135220;27;20205;-77
2020/12/06 05:23:04;;;;;;;14.93;9.70;;;0.50;99.90;;;;;;5135348;27;20203;-77
2020/12/06 05:25:30;;;;;;;14.53;9.33;;;0.50;99.90;;;;;;5135303;27;20189;-78
2020/12/06 05:27:56;;;;;;;15.47;8.80;;;0.60;99.90;;;;;;5135577;27;20270;-77
2020/12/06 05:30:24;;;;;;;12.87;8.60;;;0.60;99.90;;;;;;5134521;27;20214;-77
2020/12/06 05:32:50;;;;;;;14.40;8.70;;;0.70;99.90;;;;;;5135009;27;20191;-78
2020/12/06 05:35:19;;;;;;;15.03;8.60;;;0.60;99.90;;;;;;5134870;27;20201;-77
2020/12/06 05:37:46;;;;;;;15.73;8.97;;;0.60;99.90;;;;;;5135320;27;20194;-77
2020/12/06 05:40:16;;;;;;;12.23;8.73;;;0.80;99.90;;;;;;5134156;27;20206;-77
2020/12/06 05:42:43;;;;;;;13.63;8.87;;;0.80;99.90;;;;;;5135104;27;20194;-78
2020/12/06 05:45:10;;;;;;;13.63;8.37;;;0.80;99.90;;;;;;5134704;27;20259;-78
2020/12/06 05:47:38;;;;;;;13.63;8.63;;;0.80;99.90;;;;;;5134973;27;20284;-77
2020/12/06 05:50:05;;;;;;;12.77;8.47;;;0.90;99.90;;;;;;5134540;27;20229;-78
2020/12/06 05:52:34;;;;;;;13.20;9.17;;;0.90;99.90;;;;;;5135075;27;20627;-77
2020/12/06 05:55:00;;;;;;;11.83;8.77;;;1.00;99.90;;;;;;5134484;27;20288;-78
2020/12/06 05:57:28;;;;;;;14.70;8.77;;;1.00;99.90;;;;;;5134490;27;20561;-77
2020/12/06 05:59:56;;;;;;;15.10;8.40;;;1.00;99.90;;;;;;5134495;27;20644;-80
2020/12/06 06:02:23;;;;;;;15.03;9.00;;;1.10;99.90;;;;;;5133640;27;20203;-79
2020/12/06 06:04:51;;;;;;;13.30;8.10;;;1.10;99.90;;;;;;5134301;27;20201;-78
2020/12/06 06:07:20;;;;;;;12.73;8.53;;;1.10;99.90;;;;;;5127373;27;20212;-77
2020/12/06 06:09:50;;;;;;;17.20;9.10;;;1.10;99.90;;;;;;5132495;27;20206;-77
2020/12/06 06:12:32;;;;;;;14.83;8.40;;;1.10;99.90;;;;;;5132843;27;20194;-78
2020/12/06 06:15:01;;;;;;;15.17;9.10;;;1.20;99.90;;;;;;5146861;27;20265;-77
2020/12/06 06:17:28;;;;;;;15.07;8.97;;;1.20;99.90;;;;;;5149628;27;20620;-78
2020/12/06 06:19:56;;;;;;;14.00;8.93;;;1.20;99.90;;;;;;5149153;27;20309;-79
2020/12/06 06:22:28;;;;;;;12.60;8.60;;;1.20;99.90;;;;;;5148361;27;20259;-78
2020/12/06 06:24:56;;;;;;;15.50;8.83;;;1.20;99.90;;;;;;5149192;27;20919;-79
2020/12/06 06:27:23;;;;;;;15.40;9.50;;;1.30;99.90;;;;;;5148749;27;20217;-78
2020/12/06 06:29:50;;;;;;;14.20;8.77;;;1.30;99.90;;;;;;5148961;27;20221;-78
2020/12/06 06:32:19;;;;;;;16.13;9.47;;;1.20;99.90;;;;;;5135829;27;20202;-77
2020/12/06 06:34:46;;;;;;;14.37;9.07;;;1.20;99.90;;;;;;5134416;27;20209;-78
2020/12/06 06:37:15;;;;;;;15.27;8.97;;;1.20;99.90;;;;;;5133292;27;20199;-76
2020/12/06 06:39:43;;;;;;;13.70;8.93;;;1.10;99.90;;;;;;5134194;27;20289;-77
2020/12/06 06:42:11;;;;;;;13.00;8.93;;;1.30;99.90;;;;;;5133569;27;20205;-78
2020/12/06 06:44:39;;;;;;;14.07;9.33;;;1.30;99.90;;;;;;5134039;27;20522;-79
2020/12/06 06:47:08;;;;;;;14.93;9.98;;;1.20;99.90;;;;;;5133682;27;20469;-77
2020/12/06 06:49:50;;;;;;;16.20;9.33;;;1.20;99.90;;;;;;5133729;27;20240;-79
2020/12/06 06:52:18;;;;;;;15.27;9.00;;;1.20;99.90;;;;;;5132772;27;20644;-78
2020/12/06 06:54:48;;;;;;;14.23;9.30;;;1.30;99.90;;;;;;5133301;27;20204;-77
2020/12/06 06:57:16;;;;;;;14.87;9.23;;;1.10;99.90;;;;;;5133312;27;20657;-77
2020/12/06 06:59:45;;;;;;;16.43;10.57;;;1.10;99.90;;;;;;5133659;27;20655;-77
2020/12/06 07:02:25;;;;;;;15.40;10.20;;;1.10;99.90;;;;;;5133410;27;20232;-77
2020/12/06 07:04:52;;;;;;;17.27;10.57;;;1.30;99.90;;;;;;5133671;27;20190;-77
2020/12/06 07:07:38;;;;;;;16.77;10.57;;;1.40;99.90;;;;;;5132739;27;20395;-79
2020/12/06 07:10:05;;;;;;;18.43;11.07;;;1.30;99.90;;;;;;5133361;27;20221;-79
2020/12/06 07:12:37;;;;;;;20.90;10.70;;;1.30;99.90;;;;;;5132164;27;20203;-78
2020/12/06 07:15:06;;;;;;;22.40;10.77;;;1.20;99.90;;;;;;5133271;27;20219;-78
2020/12/06 07:17:33;;;;;;;16.30;10.20;;;1.40;99.90;;;;;;5133232;27;20195;-78
2020/12/06 07:20:00;;;;;;;18.13;10.23;;;1.40;99.90;;;;;;5125655;27;20195;-77
2020/12/06 07:22:26;;;;;;;16.70;9.90;;;1.30;99.90;;;;;;5132809;27;20199;-77
2020/12/06 07:24:54;;;;;;;18.07;10.53;;;1.30;99.90;;;;;;5133244;27;20204;-78
2020/12/06 07:27:21;;;;;;;14.87;9.23;;;1.40;99.90;;;;;;5132089;27;20574;-79
2020/12/06 07:29:47;;;;;;;15.40;10.00;;;1.60;99.90;;;;;;5132396;27;20257;-78
2020/12/06 07:32:13;;;;;;;16.40;10.07;;;1.60;99.90;;;;;;5132598;27;20284;-78
2020/12/06 07:34:39;;;;;;;20.33;10.23;;;1.60;99.90;;;;;;5132801;27;20198;-77
2020/12/06 07:37:06;;;;;;;15.47;10.17;;;1.60;99.90;;;;;;5132868;27;20604;-77
2020/12/06 07:39:32;;;;;;;18.97;10.23;;;1.70;99.90;;;;;;5132658;27;20198;-78
2020/12/06 07:41:59;;;;;;;19.87;10.20;;;1.70;99.90;;;;;;5132768;27;20198;-79
2020/12/06 07:44:26;;;;;;;14.07;9.67;;;1.80;99.90;;;;;;5132866;27;20545;-77
2020/12/06 07:47:01;;;;;;;17.80;10.53;;;1.80;99.90;;;;;;5132537;27;20651;-78
2020/12/06 07:49:28;;;;;;;17.30;9.70;;;1.70;99.90;;;;;;5132309;27;20200;-77
2020/12/06 07:51:54;;;;;;;16.37;9.57;;;1.70;99.90;;;;;;5132358;27;20189;-78
2020/12/06 07:54:20;;;;;;;17.13;9.87;;;1.80;99.90;;;;;;5139126;27;20311;-78
2020/12/06 07:56:56;;;;;;;19.40;11.23;;;1.90;99.90;;;;;;5134913;27;20287;-78
2020/12/06 07:59:25;;;;;;;17.30;10.43;;;1.90;99.90;;;;;;5131737;27;20208;-81
2020/12/06 08:01:55;;;;;;;17.77;10.00;;;1.60;99.90;;;;;;5131775;27;20271;-77
2020/12/06 08:04:27;;;;;;;19.57;10.53;;;1.10;99.90;;;;;;5131919;27;20293;-77
2020/12/06 08:07:01;;;;;;;18.83;10.90;;;0.80;99.90;;;;;;5129132;27;20290;-78
2020/12/06 08:09:29;;;;;;;18.77;11.60;;;0.70;99.90;;;;;;5126495;27;20194;-78
2020/12/06 08:12:00;;;;;;;19.23;12.17;;;0.90;99.90;;;;;;5131155;28;20194;-78
2020/12/06 08:14:27;;;;;;;26.20;12.53;;;0.80;99.90;;;;;;5130675;27;20281;-78
2020/12/06 08:16:58;;;;;;;23.77;13.30;;;0.80;99.90;;;;;;5125856;27;20306;-78
2020/12/06 08:19:25;;;;;;;21.20;12.30;;;0.80;99.90;;;;;;5127036;27;20209;-77
2020/12/06 08:21:52;;;;;;;20.23;13.03;;;1.00;99.90;;;;;;5124729;27;20209;-76
2020/12/06 08:24:21;;;;;;;22.70;12.73;;;1.10;99.90;;;;;;5132124;27;20198;-77
2020/12/06 08:26:49;;;;;;;23.57;13.50;;;1.10;99.90;;;;;;5134392;27;20321;-75
2020/12/06 08:29:16;;;;;;;21.63;12.97;;;1.10;99.90;;;;;;5134515;27;20209;-77
2020/12/06 08:31:45;;;;;;;20.67;13.23;;;1.20;99.90;;;;;;5135450;27;20226;-78
2020/12/06 08:34:13;;;;;;;21.07;12.50;;;1.10;99.90;;;;;;5135201;27;20190;-76
2020/12/06 08:36:40;;;;;;;20.63;13.33;;;1.30;99.90;;;;;;5130034;27;20205;-77
2020/12/06 08:39:17;;;;;;;23.93;12.70;;;1.40;99.90;;;;;;5134139;27;20585;-78
2020/12/06 08:41:44;;;;;;;25.43;13.40;;;1.50;99.90;;;;;;5134240;27;20223;-78
2020/12/06 08:44:10;;;;;;;23.73;13.17;;;1.70;99.90;;;;;;5128392;27;20203;-76
2020/12/06 08:46:37;;;;;;;26.17;12.63;;;1.90;99.90;;;;;;5119457;27;20699;-79
2020/12/06 08:49:16;;;;;;;22.53;13.33;;;2.00;99.90;;;;;;5116821;27;20213;-78
2020/12/06 08:51:49;;;;;;;22.33;13.03;;;2.10;99.90;;;;;;5123754;27;20229;-78
2020/12/06 08:54:16;;;;;;;29.93;13.63;;;2.30;99.90;;;;;;5125266;27;20191;-77
2020/12/06 08:56:43;;;;;;;23.10;14.40;;;2.40;99.90;;;;;;5130002;27;20230;-77
2020/12/06 08:59:10;;;;;;;22.93;14.03;;;2.50;99.90;;;;;;5128102;27;20199;-78
2020/12/06 09:01:47;;;;;;;20.10;13.10;;;2.70;99.90;;;;;;5128083;27;20561;-77
2020/12/06 09:04:15;;;;;;;21.33;13.37;;;2.80;99.90;;;;;;5133259;27;20294;-77
2020/12/06 09:06:42;;;;;;;22.77;14.17;;;2.80;99.90;;;;;;5132802;27;20206;-77
2020/12/06 09:09:09;;;;;;;20.73;13.67;;;2.90;99.90;;;;;;5129030;27;20293;-77
2020/12/06 09:11:35;;;;;;;23.00;14.33;;;3.00;99.90;;;;;;5130657;27;20321;-79
2020/12/06 09:14:02;;;;;;;23.53;14.97;;;3.00;99.90;;;;;;5128409;27;20691;-78
2020/12/06 09:16:29;;;;;;;25.00;14.73;;;3.00;99.90;;;;;;5124327;27;20735;-79
2020/12/06 09:18:55;;;;;;;24.13;14.57;;;3.00;99.90;;;;;;5125280;27;20569;-78
2020/12/06 09:21:23;;;;;;;24.97;14.43;;;2.80;99.90;;;;;;5133188;27;20225;-78
2020/12/06 09:23:49;;;;;;;22.17;14.47;;;2.80;99.90;;;;;;5133180;27;20690;-80
2020/12/06 09:26:16;;;;;;;23.20;14.10;;;3.00;99.90;;;;;;5123512;27;20285;-80
2020/12/06 09:28:42;;;;;;;22.93;13.90;;;3.20;99.90;;;;;;5117585;27;20306;-77
2020/12/06 09:31:09;;;;;;;24.87;15.40;;;3.30;99.90;;;;;;5123305;27;20316;-77
2020/12/06 09:33:36;;;;;;;25.47;14.40;;;3.20;99.90;;;;;;5113576;27;20623;-79
2020/12/06 09:36:02;;;;;;;22.60;13.83;;;2.90;99.90;;;;;;5115776;27;20557;-77
2020/12/06 09:38:30;;;;;;;24.07;13.93;;;3.00;99.90;;;;;;5118676;27;20634;-77
2020/12/06 09:40:56;;;;;;;24.80;14.50;;;3.10;99.90;;;;;;5120901;27;20600;-78
2020/12/06 09:43:23;;;;;;;25.43;14.73;;;3.10;99.90;;;;;;5115079;27;20614;-76
2020/12/06 09:45:50;;;;;;;22.17;14.40;;;3.20;99.90;;;;;;5116095;27;20249;-78
2020/12/06 09:48:16;;;;;;;21.90;14.27;;;3.00;99.90;;;;;;5119453;27;20231;-80
2020/12/06 09:50:42;;;;;;;24.20;13.60;;;2.90;99.90;;;;;;5119674;27;20628;-78
2020/12/06 09:53:09;;;;;;;20.93;13.17;;;3.00;99.90;;;;;;5117988;27;20200;-79
2020/12/06 09:55:36;;;;;;;21.73;13.43;;;3.20;99.90;;;;;;5116922;27;20204;-79
2020/12/06 09:58:03;;;;;;;20.57;13.30;;;3.40;99.90;;;;;;5114035;27;20290;-78
2020/12/06 10:00:29;;;;;;;20.13;13.50;;;3.60;99.90;;;;;;5118668;27;20213;-78
2020/12/06 10:02:55;;;;;;;45.30;19.57;;;3.90;99.90;;;;;;5127948;27;20214;-81
2020/12/06 10:05:22;;;;;;;26.63;14.70;;;3.90;99.90;;;;;;5130724;27;20644;-79
2020/12/06 10:07:48;;;;;;;21.93;14.83;;;3.90;99.90;;;;;;5131841;27;20202;-80
2020/12/06 10:10:14;;;;;;;26.03;14.80;;;3.90;99.90;;;;;;5129518;27;20250;-79
2020/12/06 10:12:42;;;;;;;25.40;14.00;;;3.90;99.90;;;;;;5129278;27;20198;-78
2020/12/06 10:15:08;;;;;;;25.20;14.67;;;3.70;99.90;;;;;;5128286;27;20212;-78
2020/12/06 10:17:38;;;;;;;24.10;14.87;;;3.50;99.90;;;;;;5121159;27;20540;-79
2020/12/06 10:20:05;;;;;;;22.03;14.50;;;3.20;99.90;;;;;;5121820;27;20205;-80
2020/12/06 10:22:31;;;;;;;21.00;14.83;;;3.40;99.90;;;;;;5135119;27;20291;-79
2020/12/06 10:24:58;;;;;;;22.37;15.17;;;3.30;99.90;;;;;;5128041;27;20207;-78
2020/12/06 10:27:24;;;;;;;26.43;15.43;;;3.20;99.90;;;;;;5127249;27;20203;-78
2020/12/06 10:29:51;;;;;;;25.40;14.70;;;2.90;99.90;;;;;;5123429;27;20248;-79
2020/12/06 10:32:18;;;;;;;23.60;14.33;;;3.00;99.90;;;;;;5119132;27;20201;-78
2020/12/06 10:34:44;;;;;;;28.27;15.60;;;3.30;99.90;;;;;;5123496;27;20212;-77
2020/12/06 10:37:11;;;;;;;27.07;15.20;;;3.30;99.90;;;;;;5115112;27;20217;-78
2020/12/06 10:39:37;;;;;;;27.57;16.10;;;3.60;99.90;;;;;;5127058;27;20206;-79
2020/12/06 10:42:04;;;;;;;24.77;14.73;;;3.70;99.90;;;;;;5124569;27;20201;-78
2020/12/06 10:44:30;;;;;;;25.57;15.00;;;3.80;99.90;;;;;;5125032;27;20297;-78
2020/12/06 10:46:57;;;;;;;24.43;14.93;;;4.00;99.90;;;;;;5119969;27;20206;-77
2020/12/06 10:49:24;;;;;;;21.70;13.93;;;3.80;99.90;;;;;;5118598;27;20195;-78
2020/12/06 10:51:50;;;;;;;20.03;13.97;;;3.70;99.90;;;;;;5120545;27;20308;-78
2020/12/06 10:54:17;;;;;;;22.80;13.67;;;3.60;99.90;;;;;;5116657;27;20661;-79
2020/12/06 10:56:46;;;;;;;22.87;14.10;;;3.80;99.90;;;;;;5114286;27;20635;-78
2020/12/06 10:59:13;;;;;;;22.83;15.13;;;3.70;99.90;;;;;;5117706;27;20201;-79
2020/12/06 11:01:39;;;;;;;23.27;15.43;;;3.90;99.90;;;;;;5126711;27;20305;-79
2020/12/06 11:04:07;;;;;;;24.67;15.47;;;4.00;99.90;;;;;;5118061;27;20580;-78
2020/12/06 11:06:33;;;;;;;29.03;15.77;;;4.20;99.90;;;;;;5118476;27;20208;-78
2020/12/06 11:09:00;;;;;;;33.40;18.27;;;4.30;99.90;;;;;;5118795;27;20225;-79
2020/12/06 11:11:27;;;;;;;29.60;17.03;;;4.60;99.90;;;;;;5122304;27;20227;-80
2020/12/06 11:13:53;;;;;;;30.80;17.43;;;4.60;99.90;;;;;;5130194;27;20195;-78
2020/12/06 11:16:21;;;;;;;27.17;15.77;;;4.70;99.90;;;;;;5132060;27;20209;-79
2020/12/06 11:18:49;;;;;;;27.27;16.53;;;4.80;99.90;;;;;;5129247;27;20269;-77
2020/12/06 11:21:18;;;;;;;27.43;16.40;;;4.90;99.90;;;;;;5130824;27;20292;-78
2020/12/06 11:23:45;;;;;;;23.00;15.53;;;5.00;99.90;;;;;;5130669;27;20261;-78
2020/12/06 11:26:13;;;;;;;21.87;14.37;;;5.00;99.90;;;;;;5121741;27;20288;-77
2020/12/06 11:28:40;;;;;;;24.23;14.50;;;5.00;99.90;;;;;;5120377;27;20203;-79
2020/12/06 11:31:06;;;;;;;25.23;14.53;;;5.00;99.90;;;;;;5122333;27;20302;-78
2020/12/06 11:33:33;;;;;;;22.50;15.47;;;5.00;99.90;;;;;;5132415;27;20294;-79
2020/12/06 11:35:59;;;;;;;24.37;16.07;;;5.10;99.90;;;;;;5134899;27;20207;-77
2020/12/06 11:38:27;;;;;;;22.73;14.53;;;5.20;99.90;;;;;;5130899;27;20205;-76
2020/12/06 11:40:53;;;;;;;21.67;14.13;;;5.30;99.90;;;;;;5124763;27;20633;-77
2020/12/06 11:43:19;;;;;;;25.63;14.97;;;5.40;99.90;;;;;;5127363;27;20317;-77
2020/12/06 11:45:46;;;;;;;25.23;15.33;;;5.40;99.90;;;;;;5124215;27;20205;-76
2020/12/06 11:48:12;;;;;;;25.03;15.20;;;5.40;99.90;;;;;;5122286;27;20205;-77
2020/12/06 11:50:39;;;;;;;23.33;15.10;;;5.50;99.90;;;;;;5125280;27;20305;-79
2020/12/06 11:53:05;;;;;;;36.80;19.43;;;5.50;99.90;;;;;;5125333;27;20226;-78
2020/12/06 11:55:32;;;;;;;34.03;18.27;;;5.00;99.90;;;;;;5123867;27;20289;-77
2020/12/06 11:57:59;;;;;;;24.73;15.47;;;4.80;99.90;;;;;;5117097;27;20528;-78
2020/12/06 12:00:25;;;;;;;24.37;14.87;;;4.70;99.90;;;;;;5123713;27;20203;-78
2020/12/06 12:02:52;;;;;;;28.90;16.47;;;4.60;99.90;;;;;;5115062;27;20190;-78
2020/12/06 12:05:18;;;;;;;27.77;16.50;;;4.40;99.90;;;;;;5115543;27;20191;-78
2020/12/06 12:07:45;;;;;;;30.63;15.43;;;4.40;99.90;;;;;;5130957;27;20234;-78
2020/12/06 12:10:13;;;;;;;29.47;16.43;;;4.30;99.90;;;;;;5127635;27;20258;-77
2020/12/06 12:12:42;;;;;;;25.50;15.77;;;4.20;99.90;;;;;;5121410;27;20618;-77
2020/12/06 12:15:10;;;;;;;23.33;15.33;;;4.20;99.90;;;;;;5117772;27;21089;-77
2020/12/06 12:17:37;;;;;;;24.50;15.80;;;4.00;99.90;;;;;;5127969;27;20211;-77
2020/12/06 12:20:06;;;;;;;27.23;16.73;;;3.80;99.90;;;;;;5131371;27;20208;-76
2020/12/06 12:22:33;;;;;;;25.47;16.20;;;3.80;99.90;;;;;;5130248;27;20640;-77
2020/12/06 12:24:59;;;;;;;25.80;16.17;;;3.70;99.90;;;;;;5131455;27;20255;-78
2020/12/06 12:27:26;;;;;;;24.60;15.23;;;3.90;99.90;;;;;;5127724;27;20282;-78
2020/12/06 12:29:53;;;;;;;29.70;17.47;;;3.80;99.90;;;;;;5134745;27;20194;-76
2020/12/06 12:32:20;;;;;;;23.43;15.23;;;3.80;99.90;;;;;;5127626;27;20288;-78
2020/12/06 12:34:46;;;;;;;23.30;14.80;;;3.90;99.90;;;;;;5121838;27;20211;-78
2020/12/06 12:37:15;;;;;;;26.03;15.37;;;4.00;99.90;;;;;;5121696;27;20617;-78
2020/12/06 12:39:41;;;;;;;22.23;14.33;;;4.00;99.90;;;;;;5126067;27;20207;-77
2020/12/06 12:42:08;;;;;;;26.43;14.90;;;3.90;99.90;;;;;;5131638;27;20199;-78
2020/12/06 12:44:34;;;;;;;23.20;14.77;;;4.00;99.90;;;;;;5134486;27;20231;-79